Time;durP1;ratioP1;P1;durP2;ratioP2;P2;SDS_P1;SDS_P2;PMS_P1;PMS_P2;Temp;Humidity;BMP_temperature;BMP_pressure;BME280_temperature;BME280_humidity;BME280_pressure;Samples;Min_cycle;Max_cycle;Signal;HPM_P1;HPM_P2
2022/04/26 03:37:19;;;;;;;18.25;13.27;;;;;;;13.34;72.23;100913.44;4949622;28;20059;-84
2022/04/26 03:39:46;;;;;;;15.70;12.38;;;;;;;13.36;73.00;100917.63;4950017;29;20054;-85
2022/04/26 03:42:13;;;;;;;14.35;11.75;;;;;;;13.32;73.51;100926.91;4932724;29;20051;-84
2022/04/26 03:44:40;;;;;;;14.93;12.18;;;;;;;13.03;74.22;100879.00;4932448;29;20062;-84
2022/04/26 03:47:07;;;;;;;16.10;12.27;;;;;;;13.42;73.70;100942.88;4932564;29;20061;-84
2022/04/26 03:49:35;;;;;;;16.95;12.50;;;;;;;13.55;73.77;100963.88;4932722;29;20440;-84
2022/04/26 03:52:02;;;;;;;15.50;12.15;;;;;;;13.39;73.73;100948.50;4933470;29;20521;-84
2022/04/26 03:54:29;;;;;;;14.20;11.70;;;;;;;13.54;73.44;100957.69;4950414;28;20066;-84
2022/04/26 03:56:55;;;;;;;17.33;12.88;;;;;;;13.58;72.82;100958.25;4957062;28;20070;-84
2022/04/26 03:59:22;;;;;;;14.85;12.65;;;;;;;13.08;72.57;100881.22;4959102;28;20051;-84
2022/04/26 04:01:49;;;;;;;14.52;11.82;;;;;;;13.27;72.03;100902.50;4962128;28;20167;-84
2022/04/26 04:04:16;;;;;;;15.32;12.68;;;;;;;13.39;71.74;100914.66;4937078;29;20061;-84
2022/04/26 04:06:43;;;;;;;16.55;12.75;;;;;;;13.39;71.44;100916.50;4938308;28;20498;-83
2022/04/26 04:09:09;;;;;;;16.00;13.10;;;;;;;13.42;71.17;100922.38;4913610;29;20044;-83
2022/04/26 04:11:36;;;;;;;19.75;12.38;;;;;;;13.83;70.34;100978.91;4913960;29;20058;-83
2022/04/26 04:14:03;;;;;;;18.77;13.10;;;;;;;13.60;70.79;100945.63;4912921;29;20410;-82
2022/04/26 04:16:29;;;;;;;16.33;12.68;;;;;;;12.69;71.24;100806.75;4930068;29;20486;-83
2022/04/26 04:21:42;;;;;;;16.73;12.23;;;;;;;13.75;71.16;100980.66;4930310;29;20417;-83
2022/04/26 04:24:08;;;;;;;14.68;12.35;;;;;;;13.49;71.53;100954.63;4941209;28;20062;-82
2022/04/26 04:26:35;;;;;;;15.20;12.27;;;;;;;13.72;71.33;100994.28;4932335;28;20070;-82
2022/04/26 04:29:02;;;;;;;15.00;12.25;;;;;;;13.67;71.53;100990.22;4932719;29;20199;-85
2022/04/26 04:31:29;;;;;;;16.38;11.90;;;;;;;12.87;71.11;100862.81;4932155;29;20330;-84
2022/04/26 04:33:56;;;;;;;19.25;13.35;;;;;;;13.57;71.11;100976.09;4949716;28;20087;-83
2022/04/26 04:36:22;;;;;;;17.70;13.25;;;;;;;13.63;71.25;100980.00;4949638;28;20055;-83
2022/04/26 04:38:49;;;;;;;20.20;13.82;;;;;;;13.76;71.08;101004.53;4931791;29;20067;-83
2022/04/26 04:41:16;;;;;;;15.75;13.23;;;;;;;13.73;71.77;100999.44;4930820;29;20066;-84
2022/04/26 04:43:42;;;;;;;15.38;12.82;;;;;;;13.54;71.86;100978.19;4932082;29;20058;-84
2022/04/26 04:46:09;;;;;;;16.48;13.02;;;;;;;13.56;71.05;100985.06;4948615;28;20066;-84
2022/04/26 04:48:37;;;;;;;19.52;14.30;;;;;;;13.67;71.37;101010.72;4931971;29;20066;-83
2022/04/26 04:51:04;;;;;;;19.63;13.57;;;;;;;13.50;71.06;100982.16;4948584;28;20058;-82
2022/04/26 04:53:36;;;;;;;;;;;;;;;13.61;71.36;101005.97;4949827;28;20051;-82
2022/04/26 04:56:02;;;;;;;18.75;13.38;;;;;;;13.59;71.55;101002.59;4931773;29;20024;-83
2022/04/26 04:58:29;;;;;;;16.95;11.98;;;;;;;13.17;71.60;100929.16;4934502;29;20079;-83
2022/04/26 05:00:56;;;;;;;19.00;13.20;;;;;;;13.23;71.31;100943.75;4931791;29;20051;-84
2022/04/26 05:03:23;;;;;;;24.23;15.73;;;;;;;13.64;72.50;101013.66;4947578;28;20051;-83
2022/04/26 05:05:49;;;;;;;18.60;15.25;;;;;;;13.52;72.56;100986.38;4923971;29;20513;-83
2022/04/26 05:08:16;;;;;;;16.80;13.10;;;;;;;13.12;72.83;100925.28;4910678;29;20491;-84
2022/04/26 05:10:43;;;;;;;19.65;14.50;;;;;;;13.28;72.63;100933.53;4948480;28;20063;-85
2022/04/26 05:13:10;;;;;;;17.58;13.57;;;;;;;13.55;72.76;100990.56;4931593;28;20141;-85
2022/04/26 05:15:38;;;;;;;19.13;14.13;;;;;;;13.84;72.42;101025.97;4947752;28;20106;-85
2022/04/26 05:18:06;;;;;;;19.52;14.27;;;;;;;13.86;72.48;101023.16;4948311;28;20054;-84
2022/04/26 05:20:35;;;;;;;21.60;14.25;;;;;;;13.12;72.21;100894.13;4931196;29;20252;-84
2022/04/26 05:25:52;;;;;;;19.90;15.55;;;;;;;13.94;72.94;101017.06;4929116;28;20583;-86
2022/04/26 05:28:19;;;;;;;24.83;15.10;;;;;;;13.72;72.67;100987.13;4931336;29;20121;-84
2022/04/26 05:30:53;;;;;;;22.00;15.90;;;;;;;13.86;72.99;101010.66;4948221;29;20043;-84
2022/04/26 05:33:21;;;;;;;24.00;16.42;;;;;;;13.69;73.65;100982.09;4931089;29;20047;-84
2022/04/26 05:35:48;;;;;;;25.77;15.20;;;;;;;13.47;73.00;100951.25;4930592;29;20110;-84
2022/04/26 05:38:16;;;;;;;19.48;15.02;;;;;;;13.64;73.11;100973.66;4947787;28;20084;-84
2022/04/26 05:40:44;;;;;;;25.40;15.70;;;;;;;13.68;72.96;100981.22;4948173;28;20138;-84
2022/04/26 05:43:10;;;;;;;21.58;14.93;;;;;;;13.56;72.99;100961.06;4948121;28;20047;-83
2022/04/26 05:45:37;;;;;;;18.77;14.90;;;;;;;13.80;72.59;101010.38;4930459;29;20110;-84
2022/04/26 05:48:09;;;;;;;19.38;14.45;;;;;;;14.04;72.45;101040.03;4931099;29;20078;-83
2022/04/26 05:50:55;;;;;;;18.98;14.98;;;;;;;13.46;71.79;100934.44;4930484;29;20157;-82
2022/04/26 05:53:22;;;;;;;19.10;13.48;;;;;;;14.16;71.57;101043.34;4947497;28;20372;-83
2022/04/26 05:55:49;;;;;;;18.90;12.88;;;;;;;14.19;71.20;101044.88;4930462;29;20314;-83
2022/04/26 05:58:16;;;;;;;18.98;14.43;;;;;;;14.11;70.84;101024.28;4930396;29;20514;-84
2022/04/26 06:00:43;;;;;;;20.67;14.68;;;;;;;14.03;71.05;101010.81;4947446;28;20178;-82
2022/04/26 06:03:09;;;;;;;20.23;15.43;;;;;;;14.03;70.42;100990.31;4926710;29;20634;-81
2022/04/26 06:05:36;;;;;;;21.02;14.45;;;;;;;13.77;70.05;100936.81;4924431;29;20067;-83
2022/04/26 06:08:05;;;;;;;14.98;13.30;;;;;;;14.19;69.76;100995.00;4908552;29;20107;-81
2022/04/26 06:10:32;;;;;;;21.85;15.20;;;;;;;14.44;69.91;101038.84;4907910;29;20321;-81
2022/04/26 06:12:58;;;;;;;19.55;15.75;;;;;;;14.52;70.23;101048.78;4908182;29;20070;-81
2022/04/26 06:15:25;;;;;;;21.85;15.75;;;;;;;14.28;70.18;101007.44;4909106;29;20060;-82
2022/04/26 06:17:52;;;;;;;22.15;17.15;;;;;;;14.47;70.76;101051.88;4921622;29;20078;-82
2022/04/26 06:20:22;;;;;;;22.77;18.08;;;;;;;14.16;71.94;101013.16;4926061;29;20039;-82
2022/04/26 06:22:49;;;;;;;24.25;17.65;;;;;;;14.41;72.42;101051.66;4912260;29;20047;-82
2022/04/26 06:25:16;;;;;;;26.00;17.35;;;;;;;14.44;72.52;101052.19;4926509;29;20063;-81
2022/04/26 06:27:43;;;;;;;20.55;15.70;;;;;;;14.44;72.55;101044.19;4926882;29;20258;-82
2022/04/26 06:30:10;;;;;;;24.92;17.27;;;;;;;14.29;72.38;101027.81;4927729;29;20326;-82
2022/04/26 06:32:37;;;;;;;23.90;17.20;;;;;;;13.87;72.50;100964.28;4926043;29;20047;-83
2022/04/26 06:35:04;;;;;;;29.38;17.38;;;;;;;14.38;72.53;101050.13;4926571;29;20047;-81
2022/04/26 06:37:31;;;;;;;22.88;16.02;;;;;;;14.48;72.33;101047.38;4926508;29;20059;-82
2022/04/26 06:39:58;;;;;;;20.63;15.07;;;;;;;14.37;72.06;101023.53;4926480;29;20525;-82
2022/04/26 06:42:24;;;;;;;22.13;16.08;;;;;;;14.00;71.54;100952.41;4927142;29;20131;-81
2022/04/26 06:44:51;;;;;;;19.48;15.13;;;;;;;14.39;71.35;101011.72;4929954;29;20043;-82
2022/04/26 06:47:18;;;;;;;20.38;14.73;;;;;;;14.73;71.11;101046.69;4927889;29;20066;-83
2022/04/26 06:49:45;;;;;;;18.83;14.85;;;;;;;14.75;70.51;101052.69;4930600;29;20059;-82
2022/04/26 06:52:11;;;;;;;19.33;13.82;;;;;;;14.95;69.89;101060.53;4931453;29;20494;-82
2022/04/26 06:54:38;;;;;;;20.15;14.32;;;;;;;15.07;68.96;101048.66;4928335;29;20048;-81
2022/04/26 06:57:05;;;;;;;16.63;13.00;;;;;;;14.76;68.62;100992.09;4927675;29;20514;-83
2022/04/26 06:59:32;;;;;;;16.25;13.70;;;;;;;14.85;68.30;100992.97;4928653;29;20383;-80
2022/04/26 07:02:02;;;;;;;17.33;12.95;;;;;;;14.64;67.75;100951.41;4927470;29;20059;-82
2022/04/26 07:04:29;;;;;;;25.60;13.23;;;;;;;14.97;67.52;100994.41;4926869;29;20044;-82
2022/04/26 07:06:56;;;;;;;18.92;11.13;;;;;;;15.09;66.84;100977.09;4915608;29;20258;-83
2022/04/26 07:09:23;;;;;;;16.75;12.25;;;;;;;15.36;65.96;101010.03;4922778;29;20062;-82
2022/04/26 07:11:50;;;;;;;17.33;11.40;;;;;;;15.45;66.12;100998.41;4905796;29;20056;-81
2022/04/26 07:14:17;;;;;;;14.93;11.45;;;;;;;15.59;65.41;101011.19;4921124;29;20665;-83
2022/04/26 07:16:49;;;;;;;17.50;10.95;;;;;;;15.89;65.64;101032.28;4906393;29;20048;-82
2022/04/26 07:19:17;;;;;;;13.80;10.43;;;;;;;16.02;65.44;101030.00;4906444;29;20070;-80
2022/04/26 07:21:46;;;;;;;14.73;10.43;;;;;;;15.74;65.25;100986.53;4910569;29;20052;-83
2022/04/26 07:24:33;;;;;;;11.95;10.27;;;;;;;15.67;62.97;100985.47;4919403;29;20140;-81
2022/04/26 07:27:00;;;;;;;14.80;9.35;;;;;;;15.85;63.09;101007.69;4928635;29;20056;-83
2022/04/26 07:29:28;;;;;;;16.38;10.25;;;;;;;16.02;64.62;101028.16;4927513;29;20082;-84
2022/04/26 07:31:55;;;;;;;12.10;9.63;;;;;;;16.05;65.31;101015.44;4930692;29;20052;-80
2022/04/26 07:34:26;;;;;;;14.00;11.88;;;;;;;16.01;65.52;100988.97;4931351;29;20056;-83
2022/04/26 07:36:59;;;;;;;16.83;12.25;;;;;;;16.26;66.23;101025.72;4930569;29;20055;-82
2022/04/26 07:39:26;;;;;;;13.32;8.40;;;;;;;16.58;63.98;101033.00;4930508;29;20138;-82
2022/04/26 07:41:54;;;;;;;9.82;8.60;;;;;;;16.49;64.65;101034.81;4930296;29;20059;-82
2022/04/26 07:44:21;;;;;;;12.80;8.68;;;;;;;15.97;64.42;100933.22;4930970;29;20051;-83
2022/04/26 07:46:49;;;;;;;12.20;8.25;;;;;;;15.94;64.11;100929.03;4930533;29;20553;-83
2022/04/26 07:49:19;;;;;;;12.73;8.52;;;;;;;16.57;63.76;101029.47;4915248;29;20059;-82
2022/04/26 07:51:46;;;;;;;12.70;9.60;;;;;;;16.63;63.48;101034.19;4930470;29;20159;-83
2022/04/26 07:54:17;;;;;;;10.90;9.07;;;;;;;16.71;63.16;101033.34;4930388;29;20413;-83
2022/04/26 07:56:49;;;;;;;14.45;7.60;;;;;;;16.67;62.55;100998.00;4930569;29;20047;-83
2022/04/26 07:59:16;;;;;;;11.43;8.07;;;;;;;16.78;62.36;101023.66;4929955;29;20140;-83
2022/04/26 08:01:43;;;;;;;12.60;7.78;;;;;;;16.73;63.17;101025.16;4933228;29;20086;-84
2022/04/26 08:04:11;;;;;;;11.65;7.78;;;;;;;16.43;62.58;100969.34;4949904;28;20036;-83
2022/04/26 08:06:38;;;;;;;10.32;6.82;;;;;;;16.64;61.72;101001.00;4933471;29;20051;-83
2022/04/26 08:09:05;;;;;;;8.38;7.53;;;;;;;16.74;62.07;100990.09;4950866;28;20497;-83
2022/04/26 08:11:32;;;;;;;12.90;7.60;;;;;;;16.77;62.20;100996.97;4933697;29;20503;-82
2022/04/26 08:13:59;;;;;;;9.57;7.40;;;;;;;16.40;61.72;100934.81;4950554;28;20442;-84
2022/04/26 08:16:25;;;;;;;12.82;7.07;;;;;;;16.36;61.92;100922.78;4949135;28;20054;-82
2022/04/26 08:18:52;;;;;;;12.05;8.23;;;;;;;17.02;61.78;101030.03;4950502;28;20129;-81
2022/04/26 08:21:20;;;;;;;11.63;7.50;;;;;;;16.83;61.59;100999.88;4933117;28;20105;-83
2022/04/26 08:29:19;;;;;;;6.85;6.10;;;;;;;17.31;61.69;101013.41;4950469;28;20110;-82
2022/04/26 08:31:46;;;;;;;9.75;7.90;;;;;;;16.75;61.79;100932.81;4950183;28;20070;-82
2022/04/26 08:34:16;;;;;;;11.07;7.90;;;;;;;16.32;61.61;100861.66;4932999;29;20062;-82
2022/04/26 08:36:43;;;;;;;7.85;7.05;;;;;;;17.48;60.16;100990.06;4932857;29;20059;-82
2022/04/26 08:39:12;;;;;;;11.55;7.95;;;;;;;17.35;60.59;100979.00;4933742;29;20051;-83
2022/04/26 08:41:48;;;;;;;7.10;6.40;;;;;;;17.65;60.16;101021.22;4936927;28;20391;-81
2022/04/26 08:44:19;;;;;;;6.85;5.75;;;;;;;17.87;59.30;101029.56;4948923;29;20078;-82
2022/04/26 08:53:04;;;;;;;8.02;5.75;;;;;;;17.64;59.34;101019.53;4965699;28;20059;-82
2022/04/26 08:55:55;;;;;;;7.55;5.43;;;;;;;17.05;59.72;100941.19;4960797;28;20655;-83
2022/04/26 08:58:40;;;;;;;5.07;4.47;;;;;;;17.38;59.39;100992.06;4947443;29;20102;-84
2022/04/26 09:01:47;;;;;;;5.03;4.43;;;;;;;17.80;58.72;101025.88;4952213;28;20051;-81
2022/04/26 09:04:38;;;;;;;10.00;5.75;;;;;;;16.97;57.39;100820.53;4925070;29;20119;-84
2022/04/26 09:07:09;;;;;;;9.55;5.20;;;;;;;18.01;58.65;101030.66;4934147;29;20064;-83
2022/04/26 09:09:40;;;;;;;5.55;4.82;;;;;;;17.91;57.70;100993.28;4915371;29;20222;-83
2022/04/26 09:12:11;;;;;;;6.70;4.90;;;;;;;17.55;57.72;100921.25;4912171;29;20302;-82
2022/04/26 09:14:47;;;;;;;8.60;5.20;;;;;;;17.81;58.60;101003.41;4926438;29;20052;-81
2022/04/26 09:17:17;;;;;;;5.20;4.05;;;;;;;18.26;56.96;101018.78;4911137;29;20515;-81
2022/04/26 09:19:56;;;;;;;6.35;4.72;;;;;;;18.22;57.15;101030.06;4909198;29;20539;-81
2022/04/26 09:22:29;;;;;;;7.45;4.80;;;;;;;18.18;56.75;101009.94;4909345;29;20112;-83
2022/04/26 09:25:08;;;;;;;5.10;4.00;;;;;;;18.32;56.43;101006.50;4892948;29;20052;-81
2022/04/26 09:27:41;;;;;;;8.30;5.13;;;;;;;18.31;56.79;101008.34;4891124;29;20091;-83
2022/04/26 09:30:13;;;;;;;5.70;4.40;;;;;;;18.31;56.74;101020.97;4897660;29;20079;-81
2022/04/26 09:32:44;;;;;;;;;;;;;;;18.25;56.95;101018.97;4909252;29;20147;-81
2022/04/26 09:35:20;;;;;;;8.07;4.97;;;;;;;17.93;57.81;101002.00;4909156;29;19927;-83
2022/04/26 09:37:48;;;;;;;7.32;4.25;;;;;;;18.29;56.96;101017.59;4908749;29;20052;-81
2022/04/26 09:40:21;;;;;;;8.27;4.53;;;;;;;18.13;57.09;100976.38;4907942;29;20044;-80
2022/04/26 09:42:50;;;;;;;6.13;4.28;;;;;;;17.41;57.35;100874.50;4908648;29;20301;-81
2022/04/26 09:45:17;;;;;;;6.05;4.07;;;;;;;18.28;56.03;100973.78;4912731;29;20056;-82
2022/04/26 09:47:45;;;;;;;6.28;4.18;;;;;;;18.39;55.45;100951.00;4910104;29;20066;-83
2022/04/26 09:50:16;;;;;;;7.20;3.95;;;;;;;18.48;55.62;100973.31;4909051;29;20414;-83
2022/04/26 09:52:43;;;;;;;8.07;3.42;;;;;;;18.48;56.16;100990.25;4907870;29;20278;-81
2022/04/26 09:55:13;;;;;;;7.30;3.75;;;;;;;18.62;55.54;100990.50;4908194;29;20059;-81
2022/04/26 09:57:42;;;;;;;5.07;4.20;;;;;;;18.77;55.24;101011.09;4908909;29;20063;-80
2022/04/26 10:00:11;;;;;;;7.05;3.88;;;;;;;18.50;55.29;100977.47;4908080;29;20304;-81
2022/04/26 10:02:53;;;;;;;7.00;4.10;;;;;;;18.39;55.79;100959.06;4909740;29;20107;-81
2022/04/26 10:05:21;;;;;;;;;;;;;;;18.71;55.29;100992.94;4923499;29;20367;-82
2022/04/26 10:07:50;;;;;;;4.93;3.75;;;;;;;18.34;56.05;100945.34;4925675;29;19923;-81
2022/04/26 10:10:20;;;;;;;4.05;3.17;;;;;;;18.56;56.22;100990.19;4909339;29;20056;-82
2022/04/26 10:15:36;;;;;;;7.30;3.97;;;;;;;18.83;55.10;100974.56;4898093;29;20139;-82
2022/04/26 10:18:38;;;;;;;4.65;3.30;;;;;;;18.84;55.21;101002.31;4912383;29;20047;-80
2022/04/26 10:21:07;;;;;;;6.35;3.42;;;;;;;18.07;55.71;100891.09;4926704;29;20342;-79
2022/04/26 10:24:03;;;;;;;4.57;3.85;;;;;;;18.65;55.73;100992.84;4942631;28;20066;-80
2022/04/26 10:26:31;;;;;;;5.55;3.47;;;;;;;18.41;56.38;100978.56;4926567;29;20096;-81
2022/04/26 10:29:01;;;;;;;5.50;3.90;;;;;;;18.04;55.71;100896.84;4926834;29;20256;-80
2022/04/26 10:31:56;;;;;;;4.88;3.95;;;;;;;18.44;55.58;100962.06;4928539;29;20056;-83
2022/04/26 10:34:33;;;;;;;8.82;4.32;;;;;;;18.54;55.97;100989.56;4926958;29;20061;-83
2022/04/26 10:37:06;;;;;;;5.70;3.83;;;;;;;18.28;56.32;100983.69;4928809;29;20172;-81
2022/04/26 10:39:38;;;;;;;7.03;3.88;;;;;;;18.03;57.14;100965.00;4926792;29;20486;-81
2022/04/26 10:42:27;;;;;;;6.57;3.70;;;;;;;18.35;56.20;100979.28;4926843;29;20051;-82
2022/04/26 10:47:52;;;;;;;4.55;3.33;;;;;;;18.33;56.36;100954.44;4928055;29;20131;-81
2022/04/26 10:50:31;;;;;;;7.78;4.35;;;;;;;18.38;56.06;100989.66;4926543;29;20147;-82
2022/04/26 10:52:58;;;;;;;4.85;3.13;;;;;;;18.10;56.28;100935.59;4942736;28;20064;-81
2022/04/26 10:55:26;;;;;;;4.85;3.47;;;;;;;18.38;56.54;100978.91;4926613;29;20436;-80
2022/04/26 10:57:55;;;;;;;5.50;3.80;;;;;;;17.45;56.04;100802.53;4925997;29;20052;-80
2022/04/26 11:00:33;;;;;;;3.47;3.03;;;;;;;18.66;55.47;100981.88;4908607;29;20142;-81
2022/04/26 11:03:03;;;;;;;5.78;3.92;;;;;;;18.27;55.88;100920.19;4925290;29;20055;-80
2022/04/26 11:05:32;;;;;;;5.18;3.55;;;;;;;18.36;56.20;100975.56;4929247;28;20146;-80
2022/04/26 11:07:59;;;;;;;5.00;3.20;;;;;;;18.40;55.67;100933.88;4914284;29;20044;-80
2022/04/26 11:10:27;;;;;;;4.45;3.45;;;;;;;18.38;56.10;100965.47;4929838;29;20051;-81
2022/04/26 11:12:58;;;;;;;6.35;3.58;;;;;;;18.53;55.96;100990.56;4930199;29;20044;-80
2022/04/26 11:15:26;;;;;;;4.60;3.25;;;;;;;18.36;55.42;100911.06;4931541;29;20054;-81
2022/04/26 11:17:54;;;;;;;4.90;3.45;;;;;;;18.57;55.76;100981.13;4930478;28;20607;-81
2022/04/26 11:20:26;;;;;;;6.85;4.50;;;;;;;18.46;56.80;100978.84;4930503;28;20072;-81
2022/04/26 11:22:57;;;;;;;5.53;3.80;;;;;;;18.61;56.39;100978.06;4929503;29;20093;-81
2022/04/26 11:28:17;;;;;;;5.38;3.40;;;;;;;18.58;56.37;100979.28;4931862;29;20342;-80
2022/04/26 11:30:53;;;;;;;5.68;3.55;;;;;;;18.46;56.07;100932.31;4931296;29;20051;-80
2022/04/26 11:33:22;;;;;;;4.03;3.58;;;;;;;18.56;56.18;100949.88;4928888;29;20269;-80
2022/04/26 11:36:06;;;;;;;5.65;3.35;;;;;;;18.57;56.52;100970.38;4929598;29;20142;-85
2022/04/26 11:38:33;;;;;;;4.13;3.20;;;;;;;18.63;56.02;100976.88;4929697;29;20054;-82
2022/04/26 11:41:02;;;;;;;5.72;3.58;;;;;;;18.66;56.41;100973.00;4930811;29;20062;-82
2022/04/26 11:43:39;;;;;;;4.40;3.45;;;;;;;18.42;56.15;100945.28;4929601;29;20063;-79
2022/04/26 11:46:07;;;;;;;3.50;3.20;;;;;;;18.47;56.54;100967.09;4929512;29;20044;-81
2022/04/26 11:48:36;;;;;;;7.90;3.97;;;;;;;18.89;55.42;100968.47;4929770;29;20115;-81
2022/04/26 11:51:03;;;;;;;5.88;3.50;;;;;;;18.75;55.74;100972.75;4929095;29;20044;-81
2022/04/26 11:53:31;;;;;;;4.95;3.28;;;;;;;18.47;56.36;100960.84;4929052;29;20044;-81
2022/04/26 11:56:03;;;;;;;9.57;3.85;;;;;;;18.51;55.89;100954.94;4931258;29;20059;-81
2022/04/26 11:58:30;;;;;;;5.22;3.00;;;;;;;18.60;56.63;100973.72;4930336;29;20047;-83
2022/04/26 12:01:10;;;;;;;8.70;3.30;;;;;;;18.55;56.68;100875.63;4926952;29;20494;-82
2022/04/26 12:03:44;;;;;;;8.30;3.67;;;;;;;19.82;54.91;100945.56;4911790;29;20638;-84
2022/04/26 12:06:14;;;;;;;8.30;3.28;;;;;;;20.27;53.85;100924.72;4907305;29;20052;-83
2022/04/26 12:08:43;;;;;;;6.40;3.03;;;;;;;20.77;52.08;100961.72;4907423;29;20045;-83
2022/04/26 12:11:30;;;;;;;5.30;3.15;;;;;;;20.86;51.43;100955.16;4907127;29;20056;-82
2022/04/26 12:13:59;;;;;;;4.38;3.13;;;;;;;20.88;51.38;100955.78;4906962;29;20048;-82
2022/04/26 12:16:27;;;;;;;4.00;2.90;;;;;;;20.68;51.24;100918.69;4905810;29;20055;-82
2022/04/26 12:18:58;;;;;;;6.53;3.55;;;;;;;20.56;50.74;100882.50;4907414;29;20416;-83
2022/04/26 12:21:28;;;;;;;5.05;2.92;;;;;;;20.80;50.71;100937.88;4907016;29;20143;-84
2022/04/26 12:24:21;;;;;;;3.63;2.63;;;;;;;20.71;50.80;100933.66;4912000;29;20095;-84
2022/04/26 12:26:52;;;;;;;5.45;2.60;;;;;;;20.58;51.35;100918.16;4929230;29;20048;-84
2022/04/26 12:29:19;;;;;;;5.25;2.40;;;;;;;20.45;51.56;100913.47;4929090;29;20215;-84
2022/04/26 12:31:50;;;;;;;5.50;2.95;;;;;;;20.01;52.01;100851.69;4930645;29;20083;-83
2022/04/26 12:34:20;;;;;;;4.35;2.85;;;;;;;20.43;52.33;100917.38;4929521;29;20051;-83
2022/04/26 12:36:54;;;;;;;5.28;3.35;;;;;;;20.60;52.13;100959.28;4929271;29;20051;-84
2022/04/26 12:39:22;;;;;;;5.30;3.13;;;;;;;19.92;51.69;100847.44;4929701;29;20075;-83
2022/04/26 12:41:51;;;;;;;9.38;2.80;;;;;;;19.89;51.99;100858.63;4929371;29;20082;-84
2022/04/26 12:44:19;;;;;;;5.07;3.08;;;;;;;20.50;52.72;100958.75;4930416;29;20051;-83
2022/04/26 12:46:45;;;;;;;7.38;3.17;;;;;;;20.50;52.96;100953.34;4929249;29;20083;-83
2022/04/26 12:51:57;;;;;;;4.25;2.80;;;;;;;20.34;53.13;100918.53;4930347;29;20103;-84
2022/04/26 12:54:30;;;;;;;5.68;2.78;;;;;;;20.64;52.36;100925.50;4928984;29;20090;-85
2022/04/26 12:57:03;;;;;;;5.03;2.90;;;;;;;20.79;51.88;100870.63;4929048;29;20154;-83
2022/04/26 12:59:38;;;;;;;3.78;2.45;;;;;;;21.38;50.46;100923.28;4929365;28;20058;-84
2022/04/26 13:02:05;;;;;;;5.45;2.75;;;;;;;21.50;50.37;100933.34;4928691;29;20055;-84
2022/04/26 13:04:35;;;;;;;4.22;2.60;;;;;;;21.21;49.67;100882.28;4948973;28;20055;-84
2022/04/26 13:07:03;;;;;;;7.93;2.78;;;;;;;21.42;48.96;100930.00;4914539;29;20078;-84
2022/04/26 13:09:33;;;;;;;3.13;2.42;;;;;;;21.18;49.68;100897.03;4909694;29;20056;-84
2022/04/26 13:12:00;;;;;;;5.38;2.63;;;;;;;21.27;49.28;100909.31;4894176;29;20507;-82
2022/04/26 13:14:27;;;;;;;6.53;3.33;;;;;;;21.26;49.72;100926.56;4894218;29;20056;-82
2022/04/26 13:17:13;;;;;;;6.50;2.85;;;;;;;21.02;48.79;100879.28;4910482;29;20119;-84
2022/04/26 13:19:41;;;;;;;2.97;2.63;;;;;;;21.51;47.43;100853.19;4894053;29;20301;-83
2022/04/26 13:22:08;;;;;;;5.68;2.85;;;;;;;22.27;46.11;100933.25;4909441;29;20074;-83
2022/04/26 13:24:35;;;;;;;8.05;2.92;;;;;;;22.08;45.77;100891.56;4940763;28;20399;-83
2022/04/26 13:27:02;;;;;;;4.38;3.28;;;;;;;21.85;46.27;100898.19;4947473;28;20055;-83
2022/04/26 13:29:29;;;;;;;3.15;2.30;;;;;;;21.54;47.07;100850.91;4931237;29;20382;-84
2022/04/26 13:31:59;;;;;;;3.35;2.30;;;;;;;21.64;46.62;100877.53;4947132;28;20066;-83
2022/04/26 13:34:25;;;;;;;6.35;2.22;;;;;;;21.79;47.05;100909.78;4948300;28;20497;-84
2022/04/26 13:37:01;;;;;;;5.57;2.40;;;;;;;21.70;46.93;100911.00;4932709;29;20051;-83
2022/04/26 13:39:28;;;;;;;3.10;2.58;;;;;;;21.71;46.68;100907.28;4947351;28;20055;-84
2022/04/26 13:41:55;;;;;;;5.28;2.88;;;;;;;21.65;46.79;100908.06;4931782;29;20059;-84
2022/04/26 13:44:21;;;;;;;4.47;2.60;;;;;;;21.67;47.37;100904.13;4931222;29;20087;-83
2022/04/26 13:46:50;;;;;;;3.33;2.80;;;;;;;21.76;46.55;100915.59;4932367;29;20418;-86
2022/04/26 13:49:17;;;;;;;5.18;2.63;;;;;;;21.69;46.67;100903.94;4949341;28;20055;-83
2022/04/26 13:51:44;;;;;;;4.10;2.35;;;;;;;21.71;46.56;100902.69;4934167;29;20055;-83
2022/04/26 13:54:11;;;;;;;5.35;3.10;;;;;;;21.17;45.88;100814.38;4952612;28;20490;-83
2022/04/26 13:56:37;;;;;;;7.30;2.38;;;;;;;21.65;45.89;100895.41;4952300;28;20051;-80
2022/04/26 13:59:04;;;;;;;8.95;2.85;;;;;;;21.63;45.87;100883.97;4947042;29;20055;-83
2022/04/26 14:01:31;;;;;;;6.13;2.45;;;;;;;20.96;45.72;100780.22;4930814;29;20449;-83
2022/04/26 14:03:58;;;;;;;5.57;2.38;;;;;;;21.22;46.00;100817.31;4930870;28;20055;-83
2022/04/26 14:06:25;;;;;;;5.22;2.38;;;;;;;21.71;45.81;100886.50;4921841;29;20055;-82
2022/04/26 14:08:51;;;;;;;4.63;2.38;;;;;;;21.88;45.27;100889.66;4912171;29;20047;-84
2022/04/26 14:11:19;;;;;;;5.15;2.08;;;;;;;21.59;45.22;100834.09;4911956;29;20055;-84
2022/04/26 14:22:21;;;;;;;6.57;2.75;;;;;;;21.77;44.04;100863.22;4928781;29;20052;-81
2022/04/26 14:24:52;;;;;;;4.65;2.47;;;;;;;21.91;44.46;100880.31;4928395;29;20054;-84
2022/04/26 14:27:20;;;;;;;3.80;2.80;;;;;;;21.87;44.53;100879.91;4930886;29;20088;-85
2022/04/26 14:29:47;;;;;;;4.10;2.50;;;;;;;21.84;44.37;100850.56;4931128;29;20058;-83
2022/04/26 14:32:14;;;;;;;2.80;2.60;;;;;;;21.95;43.82;100858.06;4920870;29;20047;-84
2022/04/26 14:34:42;;;;;;;6.18;2.40;;;;;;;21.92;44.10;100872.00;4912079;29;20142;-84
2022/04/26 14:37:10;;;;;;;4.38;2.38;;;;;;;22.06;43.66;100866.59;4911530;29;20222;-83
2022/04/26 14:39:36;;;;;;;3.72;2.45;;;;;;;21.73;43.02;100813.34;4914215;29;20510;-82
2022/04/26 14:42:04;;;;;;;4.72;2.53;;;;;;;21.92;43.62;100858.50;4932959;29;20048;-83
2022/04/26 14:44:31;;;;;;;3.72;3.05;;;;;;;22.04;43.88;100874.09;4931914;29;20047;-83
2022/04/26 14:46:58;;;;;;;6.35;2.53;;;;;;;21.81;43.35;100840.16;4915446;29;20055;-81
2022/04/26 14:49:24;;;;;;;8.68;3.22;;;;;;;21.79;46.33;100854.91;4915679;29;20130;-84
2022/04/26 14:51:51;;;;;;;5.75;3.28;;;;;;;20.86;47.08;100704.22;4915530;29;20059;-84
2022/04/26 14:54:18;;;;;;;4.38;2.80;;;;;;;21.86;46.24;100864.69;4915556;29;20079;-84
2022/04/26 14:56:47;;;;;;;2.83;2.30;;;;;;;21.76;45.33;100850.75;4915398;29;20056;-84
2022/04/26 14:59:15;;;;;;;10.02;2.47;;;;;;;21.72;44.52;100835.97;4915665;29;20055;-84
2022/04/26 15:01:46;;;;;;;3.33;2.10;;;;;;;21.74;43.87;100845.53;4930836;29;20095;-83
2022/04/26 15:04:15;;;;;;;4.30;3.08;;;;;;;21.51;44.51;100826.16;4927443;29;20056;-83
2022/04/26 15:06:44;;;;;;;3.40;2.95;;;;;;;20.76;43.83;100687.56;4911798;29;20067;-84
2022/04/26 15:17:29;;;;;;;3.78;2.25;;;;;;;21.59;42.46;100835.97;4913408;29;20056;-83
2022/04/26 15:19:56;;;;;;;4.50;2.15;;;;;;;21.69;41.79;100839.09;4912752;29;20078;-83
2022/04/26 15:22:24;;;;;;;3.55;2.13;;;;;;;21.71;40.95;100853.25;4911833;29;20064;-82
2022/04/26 15:24:55;;;;;;;2.70;1.92;;;;;;;21.66;41.23;100847.63;4928605;29;20055;-82
2022/04/26 15:27:22;;;;;;;5.43;3.13;;;;;;;21.62;41.80;100849.06;4931687;28;20048;-84
2022/04/26 15:29:48;;;;;;;7.05;3.15;;;;;;;21.34;45.01;100818.38;4930599;29;20068;-83
2022/04/26 15:32:15;;;;;;;3.55;2.83;;;;;;;21.26;46.75;100786.19;4930285;29;20407;-84
2022/04/26 15:34:42;;;;;;;5.53;3.30;;;;;;;21.55;47.22;100839.06;4930396;29;20077;-84
2022/04/26 15:37:09;;;;;;;5.28;3.00;;;;;;;21.63;47.87;100845.31;4931980;29;20047;-83
2022/04/26 15:39:36;;;;;;;4.63;3.05;;;;;;;20.91;48.18;100740.34;4929443;29;20067;-82
2022/04/26 15:42:06;;;;;;;5.80;2.83;;;;;;;20.45;48.69;100669.97;4930631;29;20059;-85
2022/04/26 15:44:33;;;;;;;4.38;3.00;;;;;;;21.16;48.71;100774.06;4930335;29;20064;-83
2022/04/26 15:47:00;;;;;;;5.43;2.70;;;;;;;21.37;48.75;100805.53;4931503;29;20052;-84
2022/04/26 15:49:30;;;;;;;3.30;2.88;;;;;;;21.62;48.78;100847.19;4930366;29;20067;-83
2022/04/26 15:51:57;;;;;;;4.55;3.45;;;;;;;21.35;48.96;100811.13;4929412;29;20047;-84